sensor_id;sensor_type;location;lat;lon;timestamp;P1;durP1;ratioP1;P2;durP2;ratioP2
20655;SDS011;10487;53.320;8.672;2023-05-07T00:00:42;1.33;;;1.10;;
20655;SDS011;10487;53.320;8.672;2023-05-07T00:03:44;1.70;;;1.40;;
20655;SDS011;10487;53.320;8.672;2023-05-07T00:06:46;1.98;;;1.70;;
20655;SDS011;10487;53.320;8.672;2023-05-07T00:09:47;1.95;;;1.52;;
20655;SDS011;10487;53.320;8.672;2023-05-07T00:12:49;1.75;;;1.30;;
20655;SDS011;10487;53.320;8.672;2023-05-07T00:15:51;1.20;;;1.10;;
20655;SDS011;10487;53.320;8.672;2023-05-07T00:18:52;1.33;;;1.08;;
20655;SDS011;10487;53.320;8.672;2023-05-07T00:21:54;1.73;;;1.50;;
20655;SDS011;10487;53.320;8.672;2023-05-07T00:24:57;2.90;;;0.80;;
20655;SDS011;10487;53.320;8.672;2023-05-07T00:27:58;1.55;;;1.20;;
20655;SDS011;10487;53.320;8.672;2023-05-07T00:31:04;1.30;;;1.10;;
20655;SDS011;10487;53.320;8.672;2023-05-07T00:34:06;1.90;;;1.63;;
20655;SDS011;10487;53.320;8.672;2023-05-07T00:37:07;1.45;;;1.27;;
20655;SDS011;10487;53.320;8.672;2023-05-07T00:40:10;1.10;;;1.00;;
20655;SDS011;10487;53.320;8.672;2023-05-07T00:43:12;2.17;;;1.50;;
20655;SDS011;10487;53.320;8.672;2023-05-07T00:46:13;1.35;;;1.08;;
20655;SDS011;10487;53.320;8.672;2023-05-07T00:49:17;1.20;;;1.00;;
20655;SDS011;10487;53.320;8.672;2023-05-07T00:52:19;1.38;;;1.27;;
20655;SDS011;10487;53.320;8.672;2023-05-07T00:55:23;2.10;;;1.55;;
20655;SDS011;10487;53.320;8.672;2023-05-07T00:58:25;1.25;;;0.98;;
20655;SDS011;10487;53.320;8.672;2023-05-07T01:01:26;1.27;;;1.17;;
20655;SDS011;10487;53.320;8.672;2023-05-07T01:04:28;1.33;;;1.23;;
20655;SDS011;10487;53.320;8.672;2023-05-07T01:07:30;1.08;;;0.98;;
20655;SDS011;10487;53.320;8.672;2023-05-07T01:10:32;1.33;;;1.23;;
20655;SDS011;10487;53.320;8.672;2023-05-07T01:13:34;1.27;;;1.00;;
20655;SDS011;10487;53.320;8.672;2023-05-07T01:16:37;1.40;;;1.20;;
20655;SDS011;10487;53.320;8.672;2023-05-07T01:19:39;1.23;;;1.08;;
20655;SDS011;10487;53.320;8.672;2023-05-07T01:22:40;2.60;;;1.80;;
20655;SDS011;10487;53.320;8.672;2023-05-07T01:25:50;1.15;;;0.90;;
20655;SDS011;10487;53.320;8.672;2023-05-07T01:28:55;1.10;;;1.00;;
20655;SDS011;10487;53.320;8.672;2023-05-07T01:31:57;1.75;;;1.55;;
20655;SDS011;10487;53.320;8.672;2023-05-07T01:35:00;1.20;;;0.90;;
20655;SDS011;10487;53.320;8.672;2023-05-07T01:38:04;1.02;;;0.90;;
20655;SDS011;10487;53.320;8.672;2023-05-07T01:41:07;0.98;;;0.90;;
20655;SDS011;10487;53.320;8.672;2023-05-07T01:44:09;1.50;;;1.40;;
20655;SDS011;10487;53.320;8.672;2023-05-07T01:47:13;1.80;;;1.00;;
20655;SDS011;10487;53.320;8.672;2023-05-07T01:50:15;1.00;;;0.80;;
20655;SDS011;10487;53.320;8.672;2023-05-07T01:53:19;1.30;;;1.02;;
20655;SDS011;10487;53.320;8.672;2023-05-07T01:56:21;1.05;;;0.90;;
20655;SDS011;10487;53.320;8.672;2023-05-07T01:59:22;1.30;;;1.00;;
20655;SDS011;10487;53.320;8.672;2023-05-07T02:02:24;1.15;;;0.95;;
20655;SDS011;10487;53.320;8.672;2023-05-07T02:05:26;1.20;;;1.08;;
20655;SDS011;10487;53.320;8.672;2023-05-07T02:08:28;1.30;;;1.00;;
20655;SDS011;10487;53.320;8.672;2023-05-07T02:11:29;1.13;;;0.85;;
20655;SDS011;10487;53.320;8.672;2023-05-07T02:14:31;1.08;;;0.80;;
20655;SDS011;10487;53.320;8.672;2023-05-07T02:17:33;1.05;;;0.80;;
20655;SDS011;10487;53.320;8.672;2023-05-07T02:20:35;0.80;;;0.70;;
20655;SDS011;10487;53.320;8.672;2023-05-07T02:23:36;1.58;;;1.00;;
20655;SDS011;10487;53.320;8.672;2023-05-07T02:26:39;1.05;;;0.85;;
20655;SDS011;10487;53.320;8.672;2023-05-07T02:29:41;1.75;;;1.30;;
20655;SDS011;10487;53.320;8.672;2023-05-07T02:32:43;1.83;;;0.90;;
20655;SDS011;10487;53.320;8.672;2023-05-07T02:35:44;0.90;;;0.70;;
20655;SDS011;10487;53.320;8.672;2023-05-07T02:38:46;1.05;;;0.77;;
20655;SDS011;10487;53.320;8.672;2023-05-07T02:41:48;1.02;;;0.80;;
20655;SDS011;10487;53.320;8.672;2023-05-07T02:44:49;1.10;;;0.88;;
20655;SDS011;10487;53.320;8.672;2023-05-07T02:47:51;1.30;;;1.10;;
20655;SDS011;10487;53.320;8.672;2023-05-07T02:50:52;1.45;;;1.10;;
20655;SDS011;10487;53.320;8.672;2023-05-07T02:53:54;1.10;;;1.00;;
20655;SDS011;10487;53.320;8.672;2023-05-07T02:56:56;0.90;;;0.75;;
20655;SDS011;10487;53.320;8.672;2023-05-07T02:59:57;0.95;;;0.70;;
20655;SDS011;10487;53.320;8.672;2023-05-07T03:02:59;0.80;;;0.80;;
20655;SDS011;10487;53.320;8.672;2023-05-07T03:06:01;1.67;;;1.20;;
20655;SDS011;10487;53.320;8.672;2023-05-07T03:09:03;1.30;;;1.10;;
20655;SDS011;10487;53.320;8.672;2023-05-07T03:12:04;1.15;;;0.82;;
20655;SDS011;10487;53.320;8.672;2023-05-07T03:15:06;0.90;;;0.80;;
20655;SDS011;10487;53.320;8.672;2023-05-07T03:18:09;0.85;;;0.80;;
20655;SDS011;10487;53.320;8.672;2023-05-07T03:21:11;1.10;;;1.00;;
20655;SDS011;10487;53.320;8.672;2023-05-07T03:24:12;1.15;;;0.80;;
20655;SDS011;10487;53.320;8.672;2023-05-07T03:27:14;1.33;;;0.98;;
20655;SDS011;10487;53.320;8.672;2023-05-07T03:30:16;1.00;;;0.90;;
20655;SDS011;10487;53.320;8.672;2023-05-07T03:33:17;1.10;;;1.00;;
20655;SDS011;10487;53.320;8.672;2023-05-07T03:36:19;1.02;;;0.77;;
20655;SDS011;10487;53.320;8.672;2023-05-07T03:39:21;1.00;;;0.70;;
20655;SDS011;10487;53.320;8.672;2023-05-07T03:42:23;0.80;;;0.68;;
20655;SDS011;10487;53.320;8.672;2023-05-07T03:45:24;0.98;;;0.75;;
20655;SDS011;10487;53.320;8.672;2023-05-07T03:48:26;1.30;;;1.00;;
20655;SDS011;10487;53.320;8.672;2023-05-07T03:51:27;1.25;;;0.70;;
20655;SDS011;10487;53.320;8.672;2023-05-07T03:54:29;0.85;;;0.85;;
20655;SDS011;10487;53.320;8.672;2023-05-07T03:57:31;1.35;;;0.90;;
20655;SDS011;10487;53.320;8.672;2023-05-07T04:00:33;1.02;;;0.70;;
20655;SDS011;10487;53.320;8.672;2023-05-07T04:03:39;0.95;;;0.70;;
20655;SDS011;10487;53.320;8.672;2023-05-07T04:06:40;1.05;;;0.80;;
20655;SDS011;10487;53.320;8.672;2023-05-07T04:09:42;0.80;;;0.70;;
20655;SDS011;10487;53.320;8.672;2023-05-07T04:12:44;0.93;;;0.60;;
20655;SDS011;10487;53.320;8.672;2023-05-07T04:15:45;0.82;;;0.80;;
20655;SDS011;10487;53.320;8.672;2023-05-07T04:18:47;0.70;;;0.70;;
20655;SDS011;10487;53.320;8.672;2023-05-07T04:21:49;0.65;;;0.65;;
20655;SDS011;10487;53.320;8.672;2023-05-07T04:24:50;0.43;;;0.43;;
20655;SDS011;10487;53.320;8.672;2023-05-07T04:27:52;0.60;;;0.60;;
20655;SDS011;10487;53.320;8.672;2023-05-07T04:30:57;0.70;;;0.50;;
20655;SDS011;10487;53.320;8.672;2023-05-07T04:33:58;0.57;;;0.57;;
20655;SDS011;10487;53.320;8.672;2023-05-07T04:37:00;0.75;;;0.73;;
20655;SDS011;10487;53.320;8.672;2023-05-07T04:40:02;0.70;;;0.70;;
20655;SDS011;10487;53.320;8.672;2023-05-07T04:43:04;0.70;;;0.70;;
20655;SDS011;10487;53.320;8.672;2023-05-07T04:46:05;0.65;;;0.60;;
20655;SDS011;10487;53.320;8.672;2023-05-07T04:49:07;0.95;;;0.63;;
20655;SDS011;10487;53.320;8.672;2023-05-07T04:52:09;0.70;;;0.50;;
20655;SDS011;10487;53.320;8.672;2023-05-07T04:55:10;0.60;;;0.60;;
20655;SDS011;10487;53.320;8.672;2023-05-07T04:58:12;0.80;;;0.80;;
20655;SDS011;10487;53.320;8.672;2023-05-07T05:01:14;0.70;;;0.60;;
20655;SDS011;10487;53.320;8.672;2023-05-07T05:04:16;0.90;;;0.70;;
20655;SDS011;10487;53.320;8.672;2023-05-07T05:07:17;0.70;;;0.70;;
20655;SDS011;10487;53.320;8.672;2023-05-07T05:10:19;1.10;;;1.00;;
20655;SDS011;10487;53.320;8.672;2023-05-07T05:13:24;0.98;;;0.85;;
20655;SDS011;10487;53.320;8.672;2023-05-07T05:16:25;1.13;;;0.82;;
20655;SDS011;10487;53.320;8.672;2023-05-07T05:19:27;1.85;;;1.58;;
20655;SDS011;10487;53.320;8.672;2023-05-07T05:22:29;0.88;;;0.77;;
20655;SDS011;10487;53.320;8.672;2023-05-07T05:25:32;1.00;;;0.90;;
20655;SDS011;10487;53.320;8.672;2023-05-07T05:28:33;1.20;;;0.93;;
20655;SDS011;10487;53.320;8.672;2023-05-07T05:31:35;0.98;;;0.80;;
20655;SDS011;10487;53.320;8.672;2023-05-07T05:34:37;0.80;;;0.70;;
20655;SDS011;10487;53.320;8.672;2023-05-07T05:37:39;1.00;;;0.90;;
20655;SDS011;10487;53.320;8.672;2023-05-07T05:40:40;1.02;;;0.85;;
20655;SDS011;10487;53.320;8.672;2023-05-07T05:43:42;1.08;;;0.98;;
20655;SDS011;10487;53.320;8.672;2023-05-07T05:46:44;0.98;;;0.88;;
20655;SDS011;10487;53.320;8.672;2023-05-07T05:49:45;1.00;;;0.90;;
20655;SDS011;10487;53.320;8.672;2023-05-07T05:52:47;1.48;;;1.10;;
20655;SDS011;10487;53.320;8.672;2023-05-07T05:55:49;1.67;;;1.40;;
20655;SDS011;10487;53.320;8.672;2023-05-07T05:58:51;1.10;;;1.00;;
20655;SDS011;10487;53.320;8.672;2023-05-07T06:01:52;1.23;;;1.05;;
20655;SDS011;10487;53.320;8.672;2023-05-07T06:04:54;1.20;;;1.10;;
20655;SDS011;10487;53.320;8.672;2023-05-07T06:07:56;1.08;;;0.98;;
20655;SDS011;10487;53.320;8.672;2023-05-07T06:10:58;1.20;;;1.10;;
20655;SDS011;10487;53.320;8.672;2023-05-07T06:14:00;0.98;;;0.90;;
20655;SDS011;10487;53.320;8.672;2023-05-07T06:17:01;0.68;;;0.60;;
20655;SDS011;10487;53.320;8.672;2023-05-07T06:20:03;1.70;;;1.30;;
20655;SDS011;10487;53.320;8.672;2023-05-07T06:23:05;1.25;;;0.95;;
20655;SDS011;10487;53.320;8.672;2023-05-07T06:26:06;0.95;;;0.80;;
20655;SDS011;10487;53.320;8.672;2023-05-07T06:29:08;0.75;;;0.70;;
20655;SDS011;10487;53.320;8.672;2023-05-07T06:32:10;1.08;;;0.90;;
20655;SDS011;10487;53.320;8.672;2023-05-07T06:35:13;1.00;;;0.90;;
20655;SDS011;10487;53.320;8.672;2023-05-07T06:38:15;3.30;;;1.10;;
20655;SDS011;10487;53.320;8.672;2023-05-07T06:41:16;1.55;;;1.08;;
20655;SDS011;10487;53.320;8.672;2023-05-07T06:44:18;1.30;;;1.10;;
20655;SDS011;10487;53.320;8.672;2023-05-07T06:47:19;1.10;;;1.00;;
20655;SDS011;10487;53.320;8.672;2023-05-07T06:50:21;0.93;;;0.80;;
20655;SDS011;10487;53.320;8.672;2023-05-07T06:53:23;0.88;;;0.88;;
20655;SDS011;10487;53.320;8.672;2023-05-07T06:56:25;1.10;;;1.00;;
20655;SDS011;10487;53.320;8.672;2023-05-07T06:59:27;1.27;;;1.17;;
20655;SDS011;10487;53.320;8.672;2023-05-07T07:02:28;1.10;;;0.88;;
20655;SDS011;10487;53.320;8.672;2023-05-07T07:05:30;1.08;;;0.80;;
20655;SDS011;10487;53.320;8.672;2023-05-07T07:08:31;1.20;;;1.10;;
20655;SDS011;10487;53.320;8.672;2023-05-07T07:11:33;1.48;;;1.17;;
20655;SDS011;10487;53.320;8.672;2023-05-07T07:14:35;0.85;;;0.80;;
20655;SDS011;10487;53.320;8.672;2023-05-07T07:17:37;2.25;;;0.80;;
20655;SDS011;10487;53.320;8.672;2023-05-07T07:20:38;0.77;;;0.77;;
20655;SDS011;10487;53.320;8.672;2023-05-07T07:23:40;0.77;;;0.75;;
20655;SDS011;10487;53.320;8.672;2023-05-07T07:26:42;1.00;;;0.80;;
20655;SDS011;10487;53.320;8.672;2023-05-07T07:29:43;0.75;;;0.75;;
20655;SDS011;10487;53.320;8.672;2023-05-07T07:32:45;0.80;;;0.73;;
20655;SDS011;10487;53.320;8.672;2023-05-07T07:35:47;0.63;;;0.60;;
20655;SDS011;10487;53.320;8.672;2023-05-07T07:38:48;0.88;;;0.80;;
20655;SDS011;10487;53.320;8.672;2023-05-07T07:41:50;1.40;;;1.17;;
20655;SDS011;10487;53.320;8.672;2023-05-07T07:44:52;1.45;;;1.08;;
20655;SDS011;10487;53.320;8.672;2023-05-07T07:47:53;1.20;;;1.10;;
20655;SDS011;10487;53.320;8.672;2023-05-07T07:50:55;1.00;;;0.90;;
20655;SDS011;10487;53.320;8.672;2023-05-07T07:53:56;0.80;;;0.60;;
20655;SDS011;10487;53.320;8.672;2023-05-07T07:56:58;0.73;;;0.60;;
20655;SDS011;10487;53.320;8.672;2023-05-07T08:00:00;1.42;;;0.80;;
20655;SDS011;10487;53.320;8.672;2023-05-07T08:03:02;0.50;;;0.50;;
20655;SDS011;10487;53.320;8.672;2023-05-07T08:06:05;1.05;;;0.95;;
20655;SDS011;10487;53.320;8.672;2023-05-07T08:09:06;1.10;;;0.90;;
20655;SDS011;10487;53.320;8.672;2023-05-07T08:12:08;0.90;;;0.80;;
20655;SDS011;10487;53.320;8.672;2023-05-07T08:15:09;0.82;;;0.82;;
20655;SDS011;10487;53.320;8.672;2023-05-07T08:18:11;0.80;;;0.80;;
20655;SDS011;10487;53.320;8.672;2023-05-07T08:21:13;1.10;;;0.93;;
20655;SDS011;10487;53.320;8.672;2023-05-07T08:24:15;1.00;;;0.85;;
20655;SDS011;10487;53.320;8.672;2023-05-07T08:27:16;0.90;;;0.80;;
20655;SDS011;10487;53.320;8.672;2023-05-07T08:30:18;0.93;;;0.88;;
20655;SDS011;10487;53.320;8.672;2023-05-07T08:33:19;0.60;;;0.60;;
20655;SDS011;10487;53.320;8.672;2023-05-07T08:36:21;0.60;;;0.60;;
20655;SDS011;10487;53.320;8.672;2023-05-07T08:39:23;0.60;;;0.60;;
20655;SDS011;10487;53.320;8.672;2023-05-07T08:42:25;1.13;;;0.90;;
20655;SDS011;10487;53.320;8.672;2023-05-07T08:45:29;1.30;;;1.20;;
20655;SDS011;10487;53.320;8.672;2023-05-07T08:48:32;1.02;;;0.93;;
20655;SDS011;10487;53.320;8.672;2023-05-07T08:51:34;1.20;;;1.00;;
20655;SDS011;10487;53.320;8.672;2023-05-07T08:54:37;1.08;;;0.82;;
20655;SDS011;10487;53.320;8.672;2023-05-07T08:57:39;1.00;;;0.90;;
20655;SDS011;10487;53.320;8.672;2023-05-07T09:00:41;0.60;;;0.60;;
20655;SDS011;10487;53.320;8.672;2023-05-07T09:03:46;0.60;;;0.60;;
20655;SDS011;10487;53.320;8.672;2023-05-07T09:06:48;0.93;;;0.85;;
20655;SDS011;10487;53.320;8.672;2023-05-07T09:09:49;1.25;;;0.75;;
20655;SDS011;10487;53.320;8.672;2023-05-07T09:12:51;0.70;;;0.60;;
20655;SDS011;10487;53.320;8.672;2023-05-07T09:15:53;1.40;;;1.30;;
20655;SDS011;10487;53.320;8.672;2023-05-07T09:18:56;0.80;;;0.70;;
20655;SDS011;10487;53.320;8.672;2023-05-07T09:22:03;0.77;;;0.73;;
20655;SDS011;10487;53.320;8.672;2023-05-07T09:25:06;1.70;;;1.10;;
20655;SDS011;10487;53.320;8.672;2023-05-07T09:28:08;1.17;;;1.00;;
20655;SDS011;10487;53.320;8.672;2023-05-07T09:31:11;0.98;;;0.90;;
20655;SDS011;10487;53.320;8.672;2023-05-07T09:34:13;1.10;;;1.00;;
20655;SDS011;10487;53.320;8.672;2023-05-07T09:37:15;1.00;;;0.90;;
20655;SDS011;10487;53.320;8.672;2023-05-07T09:40:23;0.82;;;0.75;;
20655;SDS011;10487;53.320;8.672;2023-05-07T09:43:33;0.65;;;0.60;;
20655;SDS011;10487;53.320;8.672;2023-05-07T09:46:36;0.60;;;0.52;;
20655;SDS011;10487;53.320;8.672;2023-05-07T09:49:39;0.50;;;0.50;;
20655;SDS011;10487;53.320;8.672;2023-05-07T09:52:43;0.57;;;0.57;;
20655;SDS011;10487;53.320;8.672;2023-05-07T09:55:46;0.80;;;0.68;;
20655;SDS011;10487;53.320;8.672;2023-05-07T09:58:48;1.13;;;0.80;;
20655;SDS011;10487;53.320;8.672;2023-05-07T10:01:50;0.60;;;0.60;;
20655;SDS011;10487;53.320;8.672;2023-05-07T10:04:54;0.60;;;0.60;;
20655;SDS011;10487;53.320;8.672;2023-05-07T10:07:56;1.17;;;1.08;;
20655;SDS011;10487;53.320;8.672;2023-05-07T10:10:59;0.50;;;0.50;;
20655;SDS011;10487;53.320;8.672;2023-05-07T10:14:04;0.90;;;0.80;;
20655;SDS011;10487;53.320;8.672;2023-05-07T10:17:09;0.82;;;0.80;;
20655;SDS011;10487;53.320;8.672;2023-05-07T10:20:13;0.68;;;0.68;;
20655;SDS011;10487;53.320;8.672;2023-05-07T10:23:14;0.70;;;0.70;;
20655;SDS011;10487;53.320;8.672;2023-05-07T10:26:20;1.40;;;1.30;;
20655;SDS011;10487;53.320;8.672;2023-05-07T10:29:29;1.02;;;0.93;;
20655;SDS011;10487;53.320;8.672;2023-05-07T10:32:47;1.08;;;0.98;;
20655;SDS011;10487;53.320;8.672;2023-05-07T10:35:52;0.77;;;0.70;;
20655;SDS011;10487;53.320;8.672;2023-05-07T10:38:59;1.30;;;1.00;;
20655;SDS011;10487;53.320;8.672;2023-05-07T10:42:07;1.58;;;1.20;;
20655;SDS011;10487;53.320;8.672;2023-05-07T10:45:13;1.40;;;1.10;;
20655;SDS011;10487;53.320;8.672;2023-05-07T10:48:17;1.30;;;1.20;;
20655;SDS011;10487;53.320;8.672;2023-05-07T10:51:30;1.40;;;1.20;;
20655;SDS011;10487;53.320;8.672;2023-05-07T10:54:33;1.83;;;1.08;;
20655;SDS011;10487;53.320;8.672;2023-05-07T10:57:38;1.00;;;0.90;;
20655;SDS011;10487;53.320;8.672;2023-05-07T11:00:40;0.82;;;0.82;;
20655;SDS011;10487;53.320;8.672;2023-05-07T11:13:48;0.98;;;0.88;;
20655;SDS011;10487;53.320;8.672;2023-05-07T11:17:00;0.82;;;0.82;;
20655;SDS011;10487;53.320;8.672;2023-05-07T11:20:04;0.80;;;0.80;;
20655;SDS011;10487;53.320;8.672;2023-05-07T11:23:06;0.60;;;0.55;;
20655;SDS011;10487;53.320;8.672;2023-05-07T11:26:08;0.60;;;0.60;;
20655;SDS011;10487;53.320;8.672;2023-05-07T11:29:12;1.25;;;1.08;;
20655;SDS011;10487;53.320;8.672;2023-05-07T11:32:14;1.30;;;0.85;;
20655;SDS011;10487;53.320;8.672;2023-05-07T11:35:16;0.90;;;0.90;;
20655;SDS011;10487;53.320;8.672;2023-05-07T11:38:19;1.40;;;1.20;;
20655;SDS011;10487;53.320;8.672;2023-05-07T11:41:20;1.15;;;1.05;;
20655;SDS011;10487;53.320;8.672;2023-05-07T11:44:23;1.33;;;1.00;;
20655;SDS011;10487;53.320;8.672;2023-05-07T11:47:24;1.40;;;1.15;;
20655;SDS011;10487;53.320;8.672;2023-05-07T11:50:27;0.88;;;0.88;;
20655;SDS011;10487;53.320;8.672;2023-05-07T11:53:35;1.00;;;0.90;;
20655;SDS011;10487;53.320;8.672;2023-05-07T11:56:38;0.80;;;0.80;;
20655;SDS011;10487;53.320;8.672;2023-05-07T11:59:40;1.20;;;1.10;;
20655;SDS011;10487;53.320;8.672;2023-05-07T12:02:43;1.20;;;1.10;;
20655;SDS011;10487;53.320;8.672;2023-05-07T12:05:46;2.00;;;1.20;;
20655;SDS011;10487;53.320;8.672;2023-05-07T12:08:49;1.85;;;1.00;;
20655;SDS011;10487;53.320;8.672;2023-05-07T12:11:51;0.80;;;0.80;;
20655;SDS011;10487;53.320;8.672;2023-05-07T12:14:53;1.10;;;1.00;;
20655;SDS011;10487;53.320;8.672;2023-05-07T12:17:54;1.25;;;1.15;;
20655;SDS011;10487;53.320;8.672;2023-05-07T12:20:56;1.17;;;1.00;;
20655;SDS011;10487;53.320;8.672;2023-05-07T12:23:58;1.17;;;1.00;;
20655;SDS011;10487;53.320;8.672;2023-05-07T12:27:00;1.88;;;1.10;;
20655;SDS011;10487;53.320;8.672;2023-05-07T12:30:02;0.95;;;0.85;;
20655;SDS011;10487;53.320;8.672;2023-05-07T12:33:04;0.77;;;0.77;;
20655;SDS011;10487;53.320;8.672;2023-05-07T12:36:06;1.38;;;1.10;;
20655;SDS011;10487;53.320;8.672;2023-05-07T12:39:10;0.85;;;0.82;;
20655;SDS011;10487;53.320;8.672;2023-05-07T12:42:16;0.80;;;0.80;;
20655;SDS011;10487;53.320;8.672;2023-05-07T12:45:20;2.17;;;1.10;;
20655;SDS011;10487;53.320;8.672;2023-05-07T12:48:23;1.00;;;0.80;;
20655;SDS011;10487;53.320;8.672;2023-05-07T12:51:28;1.05;;;0.60;;
20655;SDS011;10487;53.320;8.672;2023-05-07T12:54:30;0.60;;;0.60;;
20655;SDS011;10487;53.320;8.672;2023-05-07T12:57:47;0.68;;;0.68;;
20655;SDS011;10487;53.320;8.672;2023-05-07T13:00:50;0.85;;;0.70;;
20655;SDS011;10487;53.320;8.672;2023-05-07T13:03:52;0.80;;;0.60;;
20655;SDS011;10487;53.320;8.672;2023-05-07T13:06:54;0.57;;;0.57;;
20655;SDS011;10487;53.320;8.672;2023-05-07T13:09:56;0.50;;;0.50;;
20655;SDS011;10487;53.320;8.672;2023-05-07T13:12:57;0.50;;;0.50;;
20655;SDS011;10487;53.320;8.672;2023-05-07T13:15:59;0.55;;;0.55;;
20655;SDS011;10487;53.320;8.672;2023-05-07T13:19:01;0.47;;;0.47;;
20655;SDS011;10487;53.320;8.672;2023-05-07T13:22:03;0.50;;;0.50;;
20655;SDS011;10487;53.320;8.672;2023-05-07T13:25:05;0.50;;;0.50;;
20655;SDS011;10487;53.320;8.672;2023-05-07T13:28:07;0.50;;;0.50;;
20655;SDS011;10487;53.320;8.672;2023-05-07T13:31:11;0.52;;;0.50;;
20655;SDS011;10487;53.320;8.672;2023-05-07T13:34:13;0.50;;;0.50;;
20655;SDS011;10487;53.320;8.672;2023-05-07T13:37:14;0.50;;;0.50;;
20655;SDS011;10487;53.320;8.672;2023-05-07T13:40:16;0.55;;;0.55;;
20655;SDS011;10487;53.320;8.672;2023-05-07T13:43:18;0.60;;;0.60;;
20655;SDS011;10487;53.320;8.672;2023-05-07T13:46:20;0.57;;;0.57;;
20655;SDS011;10487;53.320;8.672;2023-05-07T13:49:23;0.50;;;0.50;;
20655;SDS011;10487;53.320;8.672;2023-05-07T13:52:25;0.52;;;0.52;;
20655;SDS011;10487;53.320;8.672;2023-05-07T13:55:28;0.40;;;0.40;;
20655;SDS011;10487;53.320;8.672;2023-05-07T13:58:30;0.57;;;0.57;;
20655;SDS011;10487;53.320;8.672;2023-05-07T14:01:32;0.50;;;0.50;;
20655;SDS011;10487;53.320;8.672;2023-05-07T14:04:34;0.63;;;0.52;;
20655;SDS011;10487;53.320;8.672;2023-05-07T14:07:36;0.50;;;0.50;;
20655;SDS011;10487;53.320;8.672;2023-05-07T14:10:37;0.43;;;0.43;;
20655;SDS011;10487;53.320;8.672;2023-05-07T14:13:39;0.50;;;0.50;;
20655;SDS011;10487;53.320;8.672;2023-05-07T14:16:40;0.50;;;0.50;;
20655;SDS011;10487;53.320;8.672;2023-05-07T14:19:42;0.60;;;0.60;;
20655;SDS011;10487;53.320;8.672;2023-05-07T14:22:44;0.77;;;0.60;;
20655;SDS011;10487;53.320;8.672;2023-05-07T14:25:46;0.82;;;0.75;;
20655;SDS011;10487;53.320;8.672;2023-05-07T14:28:48;0.70;;;0.68;;
20655;SDS011;10487;53.320;8.672;2023-05-07T14:31:50;0.90;;;0.68;;
20655;SDS011;10487;53.320;8.672;2023-05-07T14:34:52;0.70;;;0.60;;
20655;SDS011;10487;53.320;8.672;2023-05-07T14:37:53;0.80;;;0.80;;
20655;SDS011;10487;53.320;8.672;2023-05-07T14:40:55;0.82;;;0.80;;
20655;SDS011;10487;53.320;8.672;2023-05-07T14:43:57;0.52;;;0.52;;
20655;SDS011;10487;53.320;8.672;2023-05-07T14:47:00;0.60;;;0.60;;
20655;SDS011;10487;53.320;8.672;2023-05-07T14:50:02;0.90;;;0.73;;
20655;SDS011;10487;53.320;8.672;2023-05-07T14:53:04;0.70;;;0.70;;
20655;SDS011;10487;53.320;8.672;2023-05-07T14:56:06;0.63;;;0.63;;
20655;SDS011;10487;53.320;8.672;2023-05-07T14:59:08;0.80;;;0.80;;
20655;SDS011;10487;53.320;8.672;2023-05-07T15:02:10;0.68;;;0.60;;
20655;SDS011;10487;53.320;8.672;2023-05-07T15:05:13;0.40;;;0.40;;
20655;SDS011;10487;53.320;8.672;2023-05-07T15:08:15;0.50;;;0.40;;
20655;SDS011;10487;53.320;8.672;2023-05-07T15:11:17;0.60;;;0.55;;
20655;SDS011;10487;53.320;8.672;2023-05-07T15:14:19;0.80;;;0.60;;
20655;SDS011;10487;53.320;8.672;2023-05-07T15:17:22;0.55;;;0.55;;
20655;SDS011;10487;53.320;8.672;2023-05-07T15:20:24;0.60;;;0.60;;
20655;SDS011;10487;53.320;8.672;2023-05-07T15:23:26;0.50;;;0.50;;
20655;SDS011;10487;53.320;8.672;2023-05-07T15:26:27;0.40;;;0.40;;
20655;SDS011;10487;53.320;8.672;2023-05-07T15:29:29;0.60;;;0.60;;
20655;SDS011;10487;53.320;8.672;2023-05-07T15:32:31;0.50;;;0.50;;
20655;SDS011;10487;53.320;8.672;2023-05-07T15:35:32;0.65;;;0.65;;
20655;SDS011;10487;53.320;8.672;2023-05-07T15:38:34;0.70;;;0.70;;
20655;SDS011;10487;53.320;8.672;2023-05-07T15:41:35;0.88;;;0.88;;
20655;SDS011;10487;53.320;8.672;2023-05-07T15:44:38;0.40;;;0.40;;
20655;SDS011;10487;53.320;8.672;2023-05-07T15:47:40;0.70;;;0.70;;
20655;SDS011;10487;53.320;8.672;2023-05-07T15:50:42;0.50;;;0.50;;
20655;SDS011;10487;53.320;8.672;2023-05-07T15:53:44;0.68;;;0.68;;
20655;SDS011;10487;53.320;8.672;2023-05-07T15:56:46;0.60;;;0.60;;
20655;SDS011;10487;53.320;8.672;2023-05-07T15:59:48;0.70;;;0.70;;
20655;SDS011;10487;53.320;8.672;2023-05-07T16:02:49;0.73;;;0.73;;
20655;SDS011;10487;53.320;8.672;2023-05-07T16:05:51;0.60;;;0.60;;
20655;SDS011;10487;53.320;8.672;2023-05-07T16:08:54;0.80;;;0.70;;
20655;SDS011;10487;53.320;8.672;2023-05-07T16:11:55;0.93;;;0.60;;
20655;SDS011;10487;53.320;8.672;2023-05-07T16:14:57;0.70;;;0.70;;
20655;SDS011;10487;53.320;8.672;2023-05-07T16:17:58;0.88;;;0.80;;
20655;SDS011;10487;53.320;8.672;2023-05-07T16:21:00;0.50;;;0.50;;
20655;SDS011;10487;53.320;8.672;2023-05-07T16:24:02;0.82;;;0.75;;
20655;SDS011;10487;53.320;8.672;2023-05-07T16:27:03;0.70;;;0.70;;
20655;SDS011;10487;53.320;8.672;2023-05-07T16:30:06;0.60;;;0.60;;
20655;SDS011;10487;53.320;8.672;2023-05-07T16:33:09;0.75;;;0.75;;
20655;SDS011;10487;53.320;8.672;2023-05-07T16:36:10;0.70;;;0.70;;
20655;SDS011;10487;53.320;8.672;2023-05-07T16:39:12;0.85;;;0.80;;
20655;SDS011;10487;53.320;8.672;2023-05-07T16:42:14;1.27;;;0.93;;
20655;SDS011;10487;53.320;8.672;2023-05-07T16:45:16;0.63;;;0.60;;
20655;SDS011;10487;53.320;8.672;2023-05-07T16:48:19;1.17;;;0.60;;
20655;SDS011;10487;53.320;8.672;2023-05-07T16:51:21;0.63;;;0.63;;
20655;SDS011;10487;53.320;8.672;2023-05-07T16:54:24;0.65;;;0.60;;
20655;SDS011;10487;53.320;8.672;2023-05-07T16:57:26;0.50;;;0.50;;
20655;SDS011;10487;53.320;8.672;2023-05-07T17:00:29;0.50;;;0.50;;
20655;SDS011;10487;53.320;8.672;2023-05-07T17:03:49;0.40;;;0.40;;
20655;SDS011;10487;53.320;8.672;2023-05-07T17:06:51;0.47;;;0.47;;
20655;SDS011;10487;53.320;8.672;2023-05-07T17:09:53;0.63;;;0.40;;
20655;SDS011;10487;53.320;8.672;2023-05-07T17:12:55;0.60;;;0.60;;
20655;SDS011;10487;53.320;8.672;2023-05-07T17:15:56;0.50;;;0.50;;
20655;SDS011;10487;53.320;8.672;2023-05-07T17:18:58;0.40;;;0.40;;
20655;SDS011;10487;53.320;8.672;2023-05-07T17:21:59;1.30;;;0.50;;
20655;SDS011;10487;53.320;8.672;2023-05-07T17:25:01;0.52;;;0.52;;
20655;SDS011;10487;53.320;8.672;2023-05-07T17:28:04;0.50;;;0.50;;
20655;SDS011;10487;53.320;8.672;2023-05-07T17:31:06;0.50;;;0.50;;
20655;SDS011;10487;53.320;8.672;2023-05-07T17:34:07;0.40;;;0.40;;
20655;SDS011;10487;53.320;8.672;2023-05-07T17:37:09;0.38;;;0.38;;
20655;SDS011;10487;53.320;8.672;2023-05-07T17:40:11;0.35;;;0.35;;
20655;SDS011;10487;53.320;8.672;2023-05-07T17:43:13;0.40;;;0.40;;
20655;SDS011;10487;53.320;8.672;2023-05-07T17:46:15;0.40;;;0.40;;
20655;SDS011;10487;53.320;8.672;2023-05-07T17:49:18;0.50;;;0.50;;
20655;SDS011;10487;53.320;8.672;2023-05-07T17:52:20;0.40;;;0.40;;
20655;SDS011;10487;53.320;8.672;2023-05-07T17:55:21;0.40;;;0.40;;
20655;SDS011;10487;53.320;8.672;2023-05-07T17:58:23;0.30;;;0.30;;
20655;SDS011;10487;53.320;8.672;2023-05-07T18:01:26;0.40;;;0.40;;
20655;SDS011;10487;53.320;8.672;2023-05-07T18:04:28;0.38;;;0.38;;
20655;SDS011;10487;53.320;8.672;2023-05-07T18:07:29;0.32;;;0.32;;
20655;SDS011;10487;53.320;8.672;2023-05-07T18:10:31;0.30;;;0.30;;
20655;SDS011;10487;53.320;8.672;2023-05-07T18:13:33;0.50;;;0.40;;
20655;SDS011;10487;53.320;8.672;2023-05-07T18:16:34;0.30;;;0.30;;
20655;SDS011;10487;53.320;8.672;2023-05-07T18:19:36;0.30;;;0.30;;
20655;SDS011;10487;53.320;8.672;2023-05-07T18:22:38;0.40;;;0.40;;
20655;SDS011;10487;53.320;8.672;2023-05-07T18:25:39;0.30;;;0.30;;
20655;SDS011;10487;53.320;8.672;2023-05-07T18:28:41;0.40;;;0.40;;